Terminal Aerodrome Forecast
Issued by NWS Bismarck, ND

Home | Current Version | Previous Version | Graphics & Text | Print | Product List | Glossary On
Versions: 1 2 3 4 5 6 7 8 9 10 11 12 13 14
423
FTUS43 KBIS 241129
TAFISN
TAF
KISN 241129Z 2412/2512 32008KT P6SM SKC
     FM241400 34012KT P6SM SKC
     FM250200 01009KT P6SM FEW070
     FM250500 02005KT P6SM BKN070 BKN100=

USA.gov is the U.S. government's official web portal to all federal, state and local government web resources and services.